createdAt,value
2019-05-09T00:00:53.456Z,9.00
2019-05-09T00:03:23.982Z,8.90
2019-05-09T00:05:54.135Z,8.90
2019-05-09T00:08:23.075Z,8.90
2019-05-09T00:10:53.478Z,8.90
2019-05-09T00:13:23.754Z,8.90
2019-05-09T00:15:54.126Z,8.80
2019-05-09T00:18:23.299Z,8.80
2019-05-09T00:21:10.190Z,8.80
2019-05-09T00:23:38.971Z,8.80
2019-05-09T00:26:07.441Z,8.80
2019-05-09T00:28:37.548Z,8.80
2019-05-09T00:31:23.950Z,8.80
2019-05-09T00:33:54.129Z,8.90
2019-05-09T00:36:23.176Z,8.80
2019-05-09T00:38:53.706Z,8.80
2019-05-09T00:41:23.942Z,8.80
2019-05-09T00:43:56.194Z,8.70
2019-05-09T00:46:26.315Z,8.80
2019-05-09T00:48:58.829Z,8.70
2019-05-09T00:51:27.293Z,8.60
2019-05-09T00:53:55.833Z,8.60
2019-05-09T00:56:24.327Z,8.40
2019-05-09T00:58:53.581Z,8.50
2019-05-09T01:01:23.973Z,8.50
2019-05-09T01:03:53.566Z,8.50
2019-05-09T01:06:23.866Z,8.40
2019-05-09T01:08:53.718Z,8.40
2019-05-09T01:11:24.258Z,8.30
2019-05-09T01:13:54.258Z,8.30
2019-05-09T01:16:24.196Z,8.30
2019-05-09T01:18:54.454Z,8.30
2019-05-09T01:21:23.982Z,8.30
2019-05-09T01:23:53.941Z,8.30
2019-05-09T01:26:23.989Z,8.30
2019-05-09T01:28:53.852Z,8.10
2019-05-09T01:31:24.040Z,8.10
2019-05-09T01:33:54.567Z,8.20
2019-05-09T01:36:23.532Z,8.30
2019-05-09T01:38:53.941Z,8.20
2019-05-09T01:41:29.802Z,8.20
2019-05-09T01:43:53.636Z,6.10
2019-05-09T01:46:23.610Z,8.20
2019-05-09T01:48:53.853Z,8.20
2019-05-09T01:51:23.406Z,8.20
2019-05-09T01:53:53.685Z,8.20
2019-05-09T01:56:23.514Z,8.10
2019-05-09T01:58:53.843Z,8.10
2019-05-09T02:01:24.150Z,8.20
2019-05-09T02:03:53.737Z,8.10
2019-05-09T02:06:24.404Z,8.10
2019-05-09T02:08:54.559Z,8.10
2019-05-09T02:11:23.846Z,8.10
2019-05-09T02:13:53.500Z,8.10
2019-05-09T02:16:23.802Z,8.20
2019-05-09T02:18:53.897Z,8.10
2019-05-09T02:21:23.957Z,8.10
2019-05-09T02:23:53.692Z,8.00
2019-05-09T02:26:24.071Z,8.10
2019-05-09T02:28:53.855Z,8.10
2019-05-09T02:31:24.487Z,8.10
2019-05-09T02:33:54.140Z,8.10
2019-05-09T02:36:22.874Z,8.00
2019-05-09T02:38:51.373Z,8.00
2019-05-09T02:41:20.142Z,8.00
2019-05-09T02:43:49.791Z,7.90
2019-05-09T02:46:29.423Z,7.90
2019-05-09T02:48:59.483Z,7.90
2019-05-09T02:51:29.191Z,7.90
2019-05-09T02:53:58.696Z,7.90
2019-05-09T02:56:29.500Z,7.90
2019-05-09T02:59:18.929Z,7.90
2019-05-09T03:01:49.598Z,7.90
2019-05-09T03:04:18.840Z,8.00
2019-05-09T03:06:49.214Z,7.90
2019-05-09T03:09:19.056Z,7.70
2019-05-09T03:11:48.673Z,7.80
2019-05-09T03:14:19.535Z,8.00
2019-05-09T03:16:49.245Z,8.00
2019-05-09T03:19:19.560Z,7.90
2019-05-09T03:21:52.648Z,7.80
2019-05-09T03:24:21.150Z,7.90
2019-05-09T03:26:51.539Z,8.00
2019-05-09T03:29:24.388Z,8.00
2019-05-09T03:31:53.213Z,8.10
2019-05-09T03:34:21.706Z,8.00
2019-05-09T03:36:50.530Z,8.10
2019-05-09T03:39:19.017Z,8.00
2019-05-09T03:41:48.765Z,8.00
2019-05-09T03:44:17.952Z,8.10
2019-05-09T03:47:03.006Z,7.90
2019-05-09T03:49:31.564Z,7.90
2019-05-09T03:52:00.001Z,8.00
2019-05-09T03:54:28.475Z,8.00
2019-05-09T03:57:13.735Z,8.00
2019-05-09T03:59:42.219Z,7.90
2019-05-09T04:02:10.931Z,7.90
2019-05-09T04:04:39.401Z,7.80
2019-05-09T04:07:08.466Z,7.80
2019-05-09T04:09:37.768Z,7.70
2019-05-09T04:12:07.620Z,7.70
2019-05-09T04:14:37.687Z,7.70
2019-05-09T04:17:07.908Z,7.60
2019-05-09T04:19:38.069Z,7.60
2019-05-09T04:22:08.064Z,7.60
2019-05-09T04:24:38.203Z,7.70
2019-05-09T04:27:08.553Z,7.70
2019-05-09T04:29:37.472Z,7.70
2019-05-09T04:32:07.982Z,7.70
2019-05-09T04:34:38.025Z,7.70
2019-05-09T04:37:08.002Z,7.70
2019-05-09T04:39:38.640Z,7.70
2019-05-09T04:42:08.322Z,7.70
2019-05-09T04:44:38.694Z,7.70
2019-05-09T04:47:08.792Z,7.70
2019-05-09T04:49:41.069Z,7.60
2019-05-09T04:52:07.780Z,7.60
2019-05-09T04:54:38.279Z,7.60
2019-05-09T04:57:07.771Z,7.50
2019-05-09T04:59:37.371Z,7.60
2019-05-09T05:02:08.681Z,7.60
2019-05-09T05:04:37.468Z,7.50
2019-05-09T05:07:07.630Z,7.50
2019-05-09T05:09:38.011Z,7.60
2019-05-09T05:12:08.429Z,7.60
2019-05-09T05:14:38.498Z,7.60
2019-05-09T05:17:10.842Z,7.60
2019-05-09T05:19:38.300Z,7.50
2019-05-09T05:22:08.670Z,7.30
2019-05-09T05:24:38.877Z,7.30
2019-05-09T05:27:08.245Z,7.50
2019-05-09T05:29:38.334Z,7.70
2019-05-09T05:32:08.827Z,7.80
2019-05-09T05:34:38.927Z,7.80
2019-05-09T05:37:07.580Z,7.80
2019-05-09T05:39:37.541Z,7.80
2019-05-09T05:42:08.294Z,7.80
2019-05-09T05:44:38.486Z,7.80
2019-05-09T05:47:11.447Z,7.90
2019-05-09T05:49:39.909Z,7.90
2019-05-09T05:52:08.398Z,7.80
2019-05-09T05:54:37.833Z,7.80
2019-05-09T05:57:08.397Z,7.90
2019-05-09T05:59:40.328Z,7.90
2019-05-09T06:02:08.625Z,7.80
2019-05-09T06:04:38.104Z,7.80
2019-05-09T06:07:07.972Z,7.90
2019-05-09T06:09:37.961Z,7.90
2019-05-09T06:12:08.230Z,8.00
2019-05-09T06:14:37.797Z,8.00
2019-05-09T06:17:07.845Z,8.00
2019-05-09T06:19:37.968Z,8.10
2019-05-09T06:22:08.250Z,8.10
2019-05-09T06:24:38.723Z,8.10
2019-05-09T06:27:10.186Z,8.20
2019-05-09T06:29:38.646Z,8.30
2019-05-09T06:32:07.988Z,8.40
2019-05-09T06:34:41.284Z,8.40
2019-05-09T06:37:08.902Z,8.50
2019-05-09T06:39:37.910Z,8.40
2019-05-09T06:42:09.082Z,8.50
2019-05-09T06:44:58.438Z,8.50
2019-05-09T06:47:29.073Z,8.50
2019-05-09T06:49:59.170Z,8.60
2019-05-09T06:52:28.216Z,8.70
2019-05-09T06:54:58.194Z,8.70
2019-05-09T06:57:28.066Z,8.80
2019-05-09T06:59:57.928Z,8.80
2019-05-09T07:02:28.429Z,8.80
2019-05-09T07:04:58.602Z,8.80
2019-05-09T07:07:28.700Z,8.90
2019-05-09T07:09:58.840Z,8.80
2019-05-09T07:12:27.518Z,8.90
2019-05-09T07:14:58.168Z,9.00
2019-05-09T07:17:31.753Z,9.00
2019-05-09T07:19:58.759Z,9.00
2019-05-09T07:22:28.449Z,9.10
2019-05-09T07:25:11.073Z,9.10
2019-05-09T07:27:39.782Z,9.10
2019-05-09T07:30:28.879Z,9.10
2019-05-09T07:32:58.196Z,9.10
2019-05-09T07:35:27.844Z,9.10
2019-05-09T07:37:57.896Z,9.10
2019-05-09T07:40:30.156Z,9.20
2019-05-09T07:42:58.378Z,9.20
2019-05-09T07:45:28.139Z,9.30
2019-05-09T07:47:58.433Z,9.30
2019-05-09T07:50:27.739Z,9.30
2019-05-09T07:52:58.159Z,9.50
2019-05-09T07:55:27.435Z,9.50
2019-05-09T07:57:58.747Z,9.60
2019-05-09T08:00:32.473Z,9.70
2019-05-09T08:03:01.202Z,9.80
2019-05-09T08:05:30.875Z,9.80
2019-05-09T08:07:59.369Z,9.80
2019-05-09T08:10:32.364Z,9.90
2019-05-09T08:12:58.680Z,9.90
2019-05-09T08:15:28.067Z,10.00
2019-05-09T08:17:59.186Z,10.00
2019-05-09T08:20:27.679Z,10.20
2019-05-09T08:22:58.603Z,10.20
2019-05-09T08:25:27.693Z,10.30
2019-05-09T08:27:58.775Z,10.30
2019-05-09T08:30:33.051Z,10.30
2019-05-09T08:32:59.629Z,10.30
2019-05-09T08:35:28.054Z,10.30
2019-05-09T08:37:58.358Z,10.30
2019-05-09T08:40:28.341Z,10.30
2019-05-09T08:42:58.784Z,10.30
2019-05-09T08:45:30.973Z,10.30
2019-05-09T08:47:58.410Z,10.20
2019-05-09T08:50:34.425Z,10.20
2019-05-09T08:53:03.243Z,10.30
2019-05-09T08:55:31.716Z,10.20
2019-05-09T08:58:00.210Z,10.20
2019-05-09T09:00:28.682Z,10.20
2019-05-09T09:02:57.574Z,10.20
2019-05-09T09:05:28.647Z,10.20
2019-05-09T09:07:57.819Z,10.10
2019-05-09T09:10:29.082Z,10.10
2019-05-09T09:12:58.122Z,10.10
2019-05-09T09:15:49.995Z,10.00
2019-05-09T09:17:57.850Z,10.00
2019-05-09T09:20:28.866Z,10.10
2019-05-09T09:22:58.238Z,10.10
2019-05-09T09:25:28.740Z,10.00
2019-05-09T09:27:58.292Z,10.00
2019-05-09T09:30:29.394Z,10.00
2019-05-09T09:32:58.546Z,10.00
2019-05-09T09:35:27.882Z,10.00
2019-05-09T09:37:58.080Z,10.00
2019-05-09T09:40:27.900Z,10.00
2019-05-09T09:42:58.058Z,10.00
2019-05-09T09:45:27.965Z,10.00
2019-05-09T09:48:00.091Z,10.00
2019-05-09T09:50:28.587Z,10.00
2019-05-09T09:52:58.952Z,9.90
2019-05-09T09:55:27.960Z,10.00
2019-05-09T09:57:58.338Z,10.00
2019-05-09T10:00:40.561Z,10.00
2019-05-09T10:03:09.027Z,9.90
2019-05-09T10:05:38.151Z,9.90
2019-05-09T10:08:10.266Z,9.90
2019-05-09T10:10:37.785Z,9.90
2019-05-09T10:13:10.398Z,9.90
2019-05-09T10:15:38.483Z,9.90
2019-05-09T10:18:14.907Z,9.90
2019-05-09T10:20:58.557Z,9.80
2019-05-09T10:23:27.167Z,9.80
2019-05-09T10:25:57.976Z,9.80
2019-05-09T10:28:29.799Z,9.80
2019-05-09T10:30:57.748Z,9.80
2019-05-09T10:33:28.012Z,9.80
2019-05-09T10:36:03.191Z,9.80
2019-05-09T10:38:28.015Z,9.80
2019-05-09T10:41:00.757Z,9.80
2019-05-09T10:43:38.839Z,9.70
2019-05-09T10:46:21.861Z,9.70
2019-05-09T10:48:51.960Z,9.70
2019-05-09T10:51:20.512Z,9.70
2019-05-09T10:53:48.973Z,9.70
2019-05-09T10:56:18.661Z,9.60
2019-05-09T10:58:48.355Z,9.70
2019-05-09T11:01:18.434Z,9.70
2019-05-09T11:03:48.299Z,9.80
2019-05-09T11:06:18.292Z,9.90
2019-05-09T11:08:47.808Z,9.90
2019-05-09T11:11:18.286Z,10.00
2019-05-09T11:13:48.240Z,10.10
2019-05-09T11:16:18.348Z,10.30
2019-05-09T11:18:48.287Z,10.30
2019-05-09T11:21:19.291Z,10.40
2019-05-09T11:23:48.736Z,10.40
2019-05-09T11:26:18.313Z,10.30
2019-05-09T11:28:47.095Z,10.40
2019-05-09T11:31:17.961Z,10.40
2019-05-09T11:33:48.167Z,10.40
2019-05-09T11:36:20.792Z,10.40
2019-05-09T11:38:49.270Z,10.40
2019-05-09T11:41:19.254Z,10.40
2019-05-09T11:43:48.570Z,10.50
2019-05-09T11:46:18.178Z,10.50
2019-05-09T11:48:47.092Z,10.50
2019-05-09T11:51:20.428Z,10.40
2019-05-09T11:53:48.325Z,10.50
2019-05-09T11:56:17.972Z,10.50
2019-05-09T11:58:48.220Z,10.40
2019-05-09T12:01:18.921Z,10.50
2019-05-09T12:03:48.880Z,10.40
2019-05-09T12:06:19.618Z,10.40
2019-05-09T12:08:48.303Z,10.40
2019-05-09T12:11:18.404Z,10.40
2019-05-09T12:13:48.729Z,10.50
2019-05-09T12:16:18.360Z,10.50
2019-05-09T12:18:48.828Z,10.50
2019-05-09T12:21:19.145Z,10.60
2019-05-09T12:23:48.763Z,10.60
2019-05-09T12:26:17.982Z,10.70
2019-05-09T12:28:48.266Z,10.70
2019-05-09T12:31:18.094Z,10.70
2019-05-09T12:33:48.300Z,10.70
2019-05-09T12:36:19.178Z,10.80
2019-05-09T12:38:49.856Z,10.80
2019-05-09T12:41:19.217Z,10.70
2019-05-09T12:43:47.991Z,10.70
2019-05-09T12:46:16.462Z,10.70
2019-05-09T12:48:45.016Z,10.60
2019-05-09T12:51:13.586Z,10.70
2019-05-09T12:53:42.178Z,10.60
2019-05-09T12:56:10.665Z,10.70
2019-05-09T12:58:39.144Z,10.60
2019-05-09T13:01:07.733Z,10.70
2019-05-09T13:03:38.243Z,10.70
2019-05-09T13:06:08.026Z,10.70
2019-05-09T13:08:38.520Z,10.60
2019-05-09T13:11:08.066Z,10.60
2019-05-09T13:13:40.944Z,10.50
2019-05-09T13:16:11.955Z,10.70
2019-05-09T13:18:52.327Z,10.70
2019-05-09T13:21:20.919Z,10.70
2019-05-09T13:23:52.372Z,10.70
2019-05-09T13:26:19.976Z,10.70
2019-05-09T13:28:49.033Z,10.70
2019-05-09T13:31:18.292Z,10.80
2019-05-09T13:33:48.744Z,10.70
2019-05-09T13:36:18.895Z,10.70
2019-05-09T13:38:56.383Z,11.80
2019-05-09T13:41:17.802Z,10.80
2019-05-09T13:43:53.541Z,10.90
2019-05-09T13:46:17.913Z,11.00
2019-05-09T13:49:06.254Z,10.90
2019-05-09T13:51:18.501Z,10.90
2019-05-09T13:53:48.430Z,10.90
2019-05-09T13:56:17.814Z,10.90
2019-05-09T13:58:48.746Z,10.90
2019-05-09T14:01:17.729Z,10.90
2019-05-09T14:03:49.160Z,10.90
2019-05-09T14:06:17.020Z,10.90
2019-05-09T14:08:48.716Z,10.90
2019-05-09T14:11:15.721Z,10.90
2019-05-09T14:13:44.203Z,10.90
2019-05-09T14:16:19.976Z,10.80
2019-05-09T14:18:42.898Z,10.80
2019-05-09T14:21:11.416Z,10.90
2019-05-09T14:23:51.624Z,10.90
2019-05-09T14:26:10.087Z,10.80
2019-05-09T14:28:38.573Z,10.80
2019-05-09T14:31:07.730Z,10.80
2019-05-09T14:33:38.810Z,10.80
2019-05-09T14:36:08.291Z,10.70
2019-05-09T14:38:39.177Z,10.70
2019-05-09T14:41:07.824Z,10.70
2019-05-09T14:43:39.345Z,10.70
2019-05-09T14:46:08.164Z,10.70
2019-05-09T14:48:36.921Z,10.70
2019-05-09T14:51:07.533Z,10.70
2019-05-09T14:53:35.668Z,10.70
2019-05-09T14:56:04.293Z,10.70
2019-05-09T14:58:32.820Z,10.70
2019-05-09T15:01:01.600Z,10.60
2019-05-09T15:03:30.049Z,10.70
2019-05-09T15:05:58.544Z,10.60
2019-05-09T15:08:27.921Z,10.60
2019-05-09T15:10:58.255Z,10.60
2019-05-09T15:13:28.543Z,10.50
2019-05-09T15:15:57.882Z,10.50
2019-05-09T15:18:26.542Z,10.50
2019-05-09T15:20:55.096Z,10.60
2019-05-09T15:23:23.563Z,10.50
2019-05-09T15:25:52.167Z,10.50
2019-05-09T15:28:20.675Z,10.60
2019-05-09T15:30:49.149Z,10.60
2019-05-09T15:33:17.789Z,10.70
2019-05-09T15:35:48.568Z,10.70
2019-05-09T15:38:18.214Z,10.70
2019-05-09T15:40:48.118Z,10.70
2019-05-09T15:43:18.513Z,10.60
2019-05-09T15:45:48.891Z,10.60
2019-05-09T15:48:18.112Z,10.60
2019-05-09T15:50:47.681Z,10.50
2019-05-09T15:53:18.479Z,10.50
2019-05-09T15:55:47.995Z,10.50
2019-05-09T15:58:18.857Z,10.60
2019-05-09T16:00:47.777Z,10.50
2019-05-09T16:03:18.689Z,10.60
2019-05-09T16:05:47.940Z,10.60
2019-05-09T16:08:18.594Z,10.60
2019-05-09T16:10:47.394Z,10.50
2019-05-09T16:13:17.689Z,10.50
2019-05-09T16:15:48.520Z,10.40
2019-05-09T16:18:18.181Z,10.40
2019-05-09T16:20:48.751Z,10.50
2019-05-09T16:23:18.444Z,10.50
2019-05-09T16:25:47.966Z,10.40
2019-05-09T16:28:18.577Z,10.40
2019-05-09T16:30:48.325Z,10.50
2019-05-09T16:33:18.340Z,10.50
2019-05-09T16:35:48.459Z,10.50
2019-05-09T16:38:18.541Z,10.50
2019-05-09T16:40:47.866Z,10.40
2019-05-09T16:43:17.775Z,10.40
2019-05-09T16:45:47.642Z,10.50
2019-05-09T16:48:17.874Z,10.40
2019-05-09T16:50:59.416Z,10.50
2019-05-09T16:53:18.564Z,10.40
2019-05-09T16:55:47.279Z,10.40
2019-05-09T16:58:18.265Z,10.50
2019-05-09T17:00:48.344Z,10.40
2019-05-09T17:03:17.613Z,10.50
2019-05-09T17:05:46.618Z,10.50
2019-05-09T17:08:17.574Z,10.50
2019-05-09T17:10:48.332Z,10.50
2019-05-09T17:13:18.226Z,10.40
2019-05-09T17:15:45.925Z,10.40
2019-05-09T17:18:14.662Z,10.40
2019-05-09T17:20:50.898Z,10.40
2019-05-09T17:23:21.154Z,10.40
2019-05-09T17:25:49.685Z,10.40
2019-05-09T17:28:18.157Z,10.40
2019-05-09T17:30:49.055Z,10.40
2019-05-09T17:33:17.045Z,10.40
2019-05-09T17:35:47.974Z,10.30
2019-05-09T17:38:17.895Z,10.40
2019-05-09T17:40:48.219Z,10.40
2019-05-09T17:43:18.178Z,10.50
2019-05-09T17:45:47.775Z,10.40
2019-05-09T17:48:18.264Z,10.40
2019-05-09T17:50:47.156Z,10.40
2019-05-09T17:53:18.003Z,10.30
2019-05-09T17:55:47.737Z,10.30
2019-05-09T17:58:27.168Z,10.30
2019-05-09T18:00:48.566Z,10.40
2019-05-09T18:03:18.238Z,10.40
2019-05-09T18:05:48.526Z,10.40
2019-05-09T18:08:18.784Z,10.40
2019-05-09T18:10:48.410Z,10.40
2019-05-09T18:13:23.660Z,10.30
2019-05-09T18:15:48.382Z,10.30
2019-05-09T18:18:18.448Z,10.30
2019-05-09T18:20:47.215Z,10.30
2019-05-09T18:23:17.659Z,10.20
2019-05-09T18:25:46.398Z,10.30
2019-05-09T18:28:17.322Z,10.30
2019-05-09T18:30:47.669Z,10.30
2019-05-09T18:33:17.601Z,10.30
2019-05-09T18:35:47.721Z,10.30
2019-05-09T18:38:22.420Z,10.30
2019-05-09T18:40:50.937Z,10.20
2019-05-09T18:43:19.420Z,10.20
2019-05-09T18:45:48.238Z,10.20
2019-05-09T18:48:18.688Z,10.20
2019-05-09T18:50:47.048Z,10.20
2019-05-09T18:53:15.588Z,10.20
2019-05-09T18:55:44.057Z,10.20
2019-05-09T18:58:12.592Z,10.10
2019-05-09T19:00:41.073Z,10.10
2019-05-09T19:03:09.531Z,10.10
2019-05-09T19:05:38.083Z,10.20
2019-05-09T19:08:06.886Z,10.20
2019-05-09T19:10:35.354Z,10.20
2019-05-09T19:13:03.802Z,10.20
2019-05-09T19:15:50.541Z,10.20
2019-05-09T19:18:23.334Z,10.10
2019-05-09T19:20:53.458Z,10.10
2019-05-09T19:23:21.930Z,10.10
2019-05-09T19:25:50.704Z,10.10
2019-05-09T19:28:19.190Z,10.10
2019-05-09T19:30:47.756Z,10.10
2019-05-09T19:33:16.560Z,10.20
2019-05-09T19:35:45.373Z,10.10
2019-05-09T19:38:14.220Z,10.20
2019-05-09T19:40:42.671Z,10.20
2019-05-09T19:43:11.398Z,10.20
2019-05-09T19:45:39.885Z,10.20
2019-05-09T19:48:08.375Z,10.10
2019-05-09T19:50:37.156Z,10.00
2019-05-09T19:53:05.701Z,10.10
2019-05-09T19:55:34.451Z,10.10
2019-05-09T19:58:02.958Z,10.10
2019-05-09T20:00:31.747Z,10.00
2019-05-09T20:03:00.230Z,10.00
2019-05-09T20:05:28.797Z,10.10
2019-05-09T20:07:57.255Z,10.10
2019-05-09T20:10:43.434Z,10.10
2019-05-09T20:13:22.444Z,10.10
2019-05-09T20:15:50.923Z,10.10
2019-05-09T20:18:19.379Z,10.10
2019-05-09T20:20:47.845Z,10.10
2019-05-09T20:23:16.329Z,10.10
2019-05-09T20:25:44.879Z,10.00
2019-05-09T20:28:13.389Z,10.00
2019-05-09T20:30:41.937Z,10.00
2019-05-09T20:33:10.543Z,10.00
2019-05-09T20:35:39.077Z,10.00
2019-05-09T20:38:07.825Z,10.10
2019-05-09T20:40:36.855Z,10.10
2019-05-09T20:43:05.566Z,10.00
2019-05-09T20:45:34.259Z,10.00
2019-05-09T20:48:02.971Z,10.00
2019-05-09T20:50:31.630Z,10.00
2019-05-09T20:53:09.004Z,9.90
2019-05-09T20:55:30.665Z,9.90
2019-05-09T20:57:59.324Z,9.90
2019-05-09T21:00:27.959Z,9.90
2019-05-09T21:02:56.894Z,9.90
2019-05-09T21:05:25.532Z,9.90
2019-05-09T21:07:54.157Z,9.90
2019-05-09T21:10:22.835Z,9.90
2019-05-09T21:12:51.734Z,9.90
2019-05-09T21:15:20.406Z,9.90
2019-05-09T21:17:49.290Z,9.90
2019-05-09T21:20:18.067Z,9.90
2019-05-09T21:22:46.966Z,9.90
2019-05-09T21:25:15.781Z,9.90
2019-05-09T21:27:44.747Z,9.80
2019-05-09T21:30:15.023Z,9.80
2019-05-09T21:32:43.919Z,9.80
2019-05-09T21:35:12.473Z,9.80
2019-05-09T21:37:41.011Z,9.80
2019-05-09T21:40:11.202Z,9.80
2019-05-09T21:42:39.649Z,9.80
2019-05-09T21:45:10.013Z,9.80
2019-05-09T21:47:38.509Z,11.30
2019-05-09T21:50:07.932Z,9.70
2019-05-09T21:52:36.483Z,9.70
2019-05-09T21:55:05.190Z,9.70
2019-05-09T21:57:33.740Z,9.70
2019-05-09T22:00:02.536Z,8.10
2019-05-09T22:02:31.152Z,9.70
2019-05-09T22:04:59.676Z,9.70
2019-05-09T22:07:28.403Z,9.70
2019-05-09T22:09:57.010Z,9.70
2019-05-09T22:12:25.464Z,9.70
2019-05-09T22:14:53.926Z,9.70
2019-05-09T22:17:24.031Z,9.70
2019-05-09T22:19:52.515Z,9.70
2019-05-09T22:22:20.955Z,9.70
2019-05-09T22:24:49.439Z,9.60
2019-05-09T22:27:18.127Z,9.60
2019-05-09T22:29:46.594Z,9.60
2019-05-09T22:32:15.056Z,9.60
2019-05-09T22:34:43.568Z,9.60
2019-05-09T22:37:12.320Z,9.60
2019-05-09T22:39:40.873Z,9.60
2019-05-09T22:42:09.323Z,9.70
2019-05-09T22:44:37.798Z,9.60
2019-05-09T22:47:06.378Z,9.60
2019-05-09T22:49:35.156Z,9.60
2019-05-09T22:52:03.656Z,9.60
2019-05-09T22:54:32.101Z,9.60
2019-05-09T22:57:00.837Z,9.60
2019-05-09T22:59:29.312Z,9.60
2019-05-09T23:01:57.763Z,9.60
2019-05-09T23:04:26.220Z,9.60
2019-05-09T23:06:54.957Z,9.60
2019-05-09T23:09:23.412Z,9.50
2019-05-09T23:11:51.878Z,9.40
2019-05-09T23:14:20.337Z,9.40
2019-05-09T23:16:50.569Z,9.40
2019-05-09T23:19:18.996Z,9.50
2019-05-09T23:21:47.484Z,9.60
2019-05-09T23:24:28.147Z,9.60
2019-05-09T23:26:47.871Z,9.50
2019-05-09T23:29:16.589Z,9.40
2019-05-09T23:31:55.403Z,9.50
2019-05-09T23:34:24.128Z,9.50
2019-05-09T23:36:52.590Z,9.50
2019-05-09T23:39:25.600Z,9.50
2019-05-09T23:41:54.391Z,9.50
2019-05-09T23:44:22.917Z,9.40
2019-05-09T23:46:51.384Z,9.40
2019-05-09T23:49:19.859Z,9.40
2019-05-09T23:51:51.046Z,9.50
2019-05-09T23:54:48.122Z,9.50
2019-05-09T23:57:28.911Z,9.50
